Time;durP1;ratioP1;P1;durP2;ratioP2;P2;SDS_P1;SDS_P2;PMS_P1;PMS_P2;Temp;Humidity;BMP_temperature;BMP_pressure;BME280_temperature;BME280_humidity;BME280_pressure;Samples;Min_cycle;Max_cycle;Signal;HPM_P1;HPM_P2
2023/05/19 00:01:42;;;;;;;9.30;9.00;;;8.60;99.90;;;;;;2613400;54;20398;-72
2023/05/19 00:11:25;;;;;;;8.40;8.10;;;8.50;99.90;;;;;;2610266;54;20505;-72
2023/05/19 00:17:15;;;;;;;8.33;8.03;;;8.30;99.90;;;;;;2611128;54;20374;-73
2023/05/19 00:23:03;;;;;;;7.77;7.47;;;8.30;99.90;;;;;;2610998;54;20431;-72
2023/05/19 00:28:51;;;;;;;7.27;7.03;;;8.20;99.90;;;;;;2609782;54;20150;-72
2023/05/19 00:34:39;;;;;;;7.30;7.00;;;8.00;99.90;;;;;;2610663;54;20507;-72
2023/05/19 00:40:29;;;;;;;6.80;6.60;;;7.90;99.90;;;;;;2611133;54;20138;-73
2023/05/19 00:46:18;;;;;;;7.70;7.40;;;8.00;99.90;;;;;;2609547;54;20407;-72
2023/05/19 00:52:06;;;;;;;6.90;6.70;;;7.80;99.90;;;;;;2610948;54;20358;-72
2023/05/19 00:57:57;;;;;;;6.13;5.93;;;7.90;99.90;;;;;;2612425;54;20134;-72
2023/05/19 01:03:46;;;;;;;6.37;6.17;;;7.60;99.90;;;;;;2612668;47;20429;-70
2023/05/19 01:06:53;;;;;;;6.57;6.30;;;7.60;99.90;;;;;;2610929;54;20419;-72
2023/05/19 01:09:23;;;;;;;6.07;5.87;;;7.60;99.90;;;;;;2611133;47;20525;-73
2023/05/19 01:15:11;;;;;;;6.80;6.50;;;7.50;99.90;;;;;;2604533;54;21090;-73
2023/05/19 01:34:05;;;;;;;6.10;5.90;;;7.70;99.90;;;;;;2605581;54;22304;-71
2023/05/19 01:37:08;;;;;;;6.77;6.47;;;7.70;99.90;;;;;;2605267;54;20474;-72
2023/05/19 01:39:35;;;;;;;6.20;6.00;;;7.60;99.90;;;;;;2604517;46;20406;-73
2023/05/19 01:45:23;;;;;;;6.07;5.87;;;7.50;99.90;;;;;;2604337;54;21035;-72
2023/05/19 01:51:11;;;;;;;6.07;5.87;;;7.30;99.90;;;;;;2604787;39;20846;-72
2023/05/19 02:03:29;;;;;;;5.30;5.10;;;7.10;99.90;;;;;;2606537;54;20407;-73
2023/05/19 02:06:50;;;;;;;5.50;5.30;;;7.00;99.90;;;;;;2606671;39;21076;-73
2023/05/19 02:09:36;;;;;;;5.13;4.93;;;6.90;99.90;;;;;;2607298;54;20492;-73
2023/05/19 02:15:27;;;;;;;4.93;4.73;;;7.10;99.90;;;;;;2606152;54;20422;-71
2023/05/19 02:21:15;;;;;;;5.40;5.20;;;7.10;99.90;;;;;;2605702;54;20422;-69
2023/05/19 02:27:03;;;;;;;7.03;6.70;;;7.30;99.90;;;;;;2605976;54;20134;-69
2023/05/19 02:32:53;;;;;;;5.50;5.30;;;7.40;99.90;;;;;;2607432;54;20134;-70
2023/05/19 02:38:40;;;;;;;11.20;9.47;;;7.40;99.90;;;;;;2610847;39;20857;-70
2023/05/19 02:44:28;;;;;;;5.70;5.50;;;7.30;99.90;;;;;;2606520;54;20135;-71
2023/05/19 02:50:16;;;;;;;6.77;6.47;;;7.20;99.90;;;;;;2610157;39;20643;-71
2023/05/19 02:56:04;;;;;;;5.80;5.60;;;7.30;99.90;;;;;;2606183;54;20146;-70
2023/05/19 03:01:54;;;;;;;6.17;5.97;;;7.20;99.90;;;;;;2607503;54;20394;-71
2023/05/19 03:11:19;;;;;;;5.40;5.20;;;7.10;99.90;;;;;;2605505;54;20406;-71
2023/05/19 03:17:08;;;;;;;5.50;5.30;;;7.10;99.90;;;;;;2607982;54;20506;-71
2023/05/19 03:22:57;;;;;;;5.60;5.40;;;7.10;99.90;;;;;;2608085;54;20407;-71
2023/05/19 03:28:44;;;;;;;6.93;6.43;;;7.10;99.90;;;;;;2605969;54;20394;-70
2023/05/19 03:34:32;;;;;;;5.27;5.07;;;7.00;99.90;;;;;;2607348;54;20135;-70
2023/05/19 03:40:20;;;;;;;4.80;4.60;;;7.00;99.90;;;;;;2607355;54;20394;-71
2023/05/19 03:46:08;;;;;;;5.30;5.10;;;6.90;99.90;;;;;;2607515;54;20134;-71
2023/05/19 03:51:56;;;;;;;5.00;4.80;;;6.80;99.90;;;;;;2607370;54;20162;-74
2023/05/19 03:57:44;;;;;;;5.37;5.17;;;6.90;99.90;;;;;;2609869;54;21452;-72
2023/05/19 04:03:32;;;;;;;5.30;5.10;;;7.00;99.90;;;;;;2614521;39;20484;-74
2023/05/19 04:06:50;;;;;;;5.40;5.20;;;7.00;99.90;;;;;;2609808;46;20424;-73
2023/05/19 04:09:16;;;;;;;7.70;7.30;;;7.10;99.90;;;;;;2607971;47;21843;-73
2023/05/19 04:15:10;;;;;;;5.57;5.30;;;7.00;99.90;;;;;;2606197;54;20130;-71
2023/05/19 04:20:58;;;;;;;5.77;5.57;;;7.10;99.90;;;;;;2607910;39;20741;-73
2023/05/19 04:26:46;;;;;;;7.33;6.87;;;7.20;99.90;;;;;;2607635;54;20138;-73
2023/05/19 04:32:36;;;;;;;5.40;5.20;;;7.30;99.90;;;;;;2608660;54;20174;-74
2023/05/19 04:38:24;;;;;;;5.60;5.40;;;7.50;99.90;;;;;;2610214;54;20985;-72
2023/05/19 04:44:16;;;;;;;5.50;5.30;;;7.90;99.90;;;;;;2606965;54;20151;-72
2023/05/19 04:50:05;;;;;;;6.00;5.80;;;8.20;99.90;;;;;;2607155;54;20383;-73
2023/05/19 04:55:57;;;;;;;6.30;6.10;;;8.40;99.90;;;;;;2606413;54;20503;-73
2023/05/19 05:01:45;;;;;;;6.70;6.50;;;8.60;99.90;;;;;;2607327;54;20382;-73
2023/05/19 05:11:24;;;;;;;7.87;7.57;;;9.10;99.90;;;;;;2606838;54;20426;-72
2023/05/19 05:17:13;;;;;;;7.87;7.57;;;9.80;99.90;;;;;;2607188;39;20496;-73
2023/05/19 05:23:01;;;;;;;9.87;9.37;;;10.20;99.90;;;;;;2607402;54;20411;-73
2023/05/19 05:28:49;;;;;;;9.47;9.07;;;10.30;99.90;;;;;;2606052;39;21711;-73
2023/05/19 05:34:40;;;;;;;8.50;8.20;;;10.50;99.90;;;;;;2606602;54;20382;-73
2023/05/19 05:40:28;;;;;;;11.83;11.13;;;11.30;99.90;;;;;;2606702;31;20788;-73
2023/05/19 05:46:16;;;;;;;10.17;9.77;;;11.60;99.90;;;;;;2609374;54;20174;-73
2023/05/19 05:52:05;;;;;;;13.57;12.50;;;11.90;99.90;;;;;;2607363;54;20430;-72
2023/05/19 05:57:55;;;;;;;9.13;8.83;;;12.10;99.90;;;;;;2605681;54;20516;-73
2023/05/19 06:03:43;;;;;;;10.83;10.43;;;12.80;99.90;;;;;;2604589;54;21018;-73
2023/05/19 06:06:51;;;;;;;9.90;9.60;;;12.80;99.90;;;;;;2603143;47;20416;-73
2023/05/19 06:09:17;;;;;;;10.37;9.97;;;12.90;99.90;;;;;;2604876;54;20415;-73
2023/05/19 06:15:05;;;;;;;12.10;11.60;;;13.40;99.90;;;;;;2603909;54;20173;-73
2023/05/19 06:20:53;;;;;;;11.40;11.00;;;13.70;99.90;;;;;;2605256;54;20427;-72
2023/05/19 06:26:41;;;;;;;14.33;13.33;;;13.50;98.70;;;;;;2607618;54;21761;-73
2023/05/19 06:32:28;;;;;;;11.80;11.40;;;13.80;92.10;;;;;;2606087;54;20134;-74
2023/05/19 06:38:16;;;;;;;12.53;12.13;;;14.70;77.10;;;;;;2608449;54;20174;-74
2023/05/19 06:44:06;;;;;;;12.70;12.20;;;14.50;75.40;;;;;;2604969;54;20659;-74
2023/05/19 06:49:54;;;;;;;15.93;15.13;;;15.00;64.30;;;;;;2610720;54;20398;-74
2023/05/19 06:55:41;;;;;;;12.20;11.80;;;15.10;54.90;;;;;;2610348;54;20799;-73
2023/05/19 07:01:29;;;;;;;12.70;12.20;;;16.00;43.80;;;;;;2612365;54;20126;-74
2023/05/19 07:11:20;;;;;;;15.50;14.80;;;16.10;37.10;;;;;;2613285;54;21083;-73
2023/05/19 07:17:08;;;;;;;14.07;13.57;;;16.30;29.10;;;;;;2609982;54;21120;-74
2023/05/19 07:22:55;;;;;;;14.30;13.70;;;17.00;24.50;;;;;;2612789;54;20322;-73
2023/05/19 07:28:43;;;;;;;13.80;13.20;;;17.20;22.60;;;;;;2610278;54;20234;-73
2023/05/19 07:34:31;;;;;;;14.90;14.20;;;16.30;23.40;;;;;;2614188;54;20195;-73
2023/05/19 07:40:19;;;;;;;14.30;13.70;;;16.60;23.70;;;;;;2609652;54;20134;-74
2023/05/19 07:46:07;;;;;;;14.53;13.90;;;17.90;18.00;;;;;;2613645;54;20134;-73
2023/05/19 07:51:54;;;;;;;15.13;14.53;;;17.20;20.30;;;;;;2614796;54;20150;-73
2023/05/19 07:57:42;;;;;;;14.07;13.57;;;18.20;16.60;;;;;;2612825;54;20178;-73
2023/05/19 08:03:29;;;;;;;14.67;13.97;;;17.70;18.30;;;;;;2613364;54;20133;-73
2023/05/19 08:06:52;;;;;;;16.03;15.13;;;18.00;15.50;;;;;;2613988;47;20435;-73
2023/05/19 08:09:17;;;;;;;16.37;15.27;;;18.10;14.10;;;;;;2612087;47;20162;-73
2023/05/19 08:15:06;;;;;;;13.90;13.30;;;17.90;13.40;;;;;;2612849;54;20154;-74
2023/05/19 08:20:53;;;;;;;13.60;13.10;;;17.90;13.00;;;;;;2614394;39;20806;-73
2023/05/19 08:26:43;;;;;;;13.20;12.80;;;18.70;11.30;;;;;;2613979;54;20291;-74
2023/05/19 08:29:29;;;;;;;14.80;14.20;;;19.00;10.70;;;;;;2611593;47;20432;-73
2023/05/19 08:31:57;;;;;;;14.40;13.90;;;19.10;10.90;;;;;;2613627;54;21056;-74
2023/05/19 08:37:44;;;;;;;13.83;13.33;;;18.80;9.40;;;;;;2612431;54;20423;-75
2023/05/19 08:43:32;;;;;;;14.00;13.40;;;19.40;8.30;;;;;;2614709;54;20199;-74
2023/05/19 08:49:25;;;;;;;16.00;15.30;;;19.70;5.20;;;;;;2612452;54;20199;-74
2023/05/19 09:01:52;;;;;;;15.27;14.60;;;19.00;3.90;;;;;;2611537;54;20395;-74
2023/05/19 09:11:21;;;;;;;14.00;13.50;;;19.40;2.80;;;;;;2613109;54;20387;-73
2023/05/19 09:17:08;;;;;;;14.60;14.00;;;19.10;1.70;;;;;;2613422;54;20402;-75
2023/05/19 09:22:58;;;;;;;14.27;13.57;;;18.90;2.90;;;;;;2612962;54;20130;-74
2023/05/19 09:28:47;;;;;;;14.93;14.33;;;19.60;3.20;;;;;;2612267;54;20430;-74
2023/05/19 09:34:40;;;;;;;14.00;13.50;;;19.50;1.00;;;;;;2613926;54;20407;-74
2023/05/19 09:40:28;;;;;;;15.20;14.43;;;19.90;1.00;;;;;;2613902;54;20375;-74
2023/05/19 09:46:16;;;;;;;15.00;14.30;;;20.70;1.00;;;;;;2614658;31;20616;-73
2023/05/19 09:52:04;;;;;;;13.90;13.40;;;20.20;1.00;;;;;;2614322;54;20411;-74
2023/05/19 09:58:06;;;;;;;14.83;14.23;;;21.10;1.00;;;;;;2612591;54;20375;-74
2023/05/19 10:03:55;;;;;;;13.47;12.97;;;20.60;1.00;;;;;;2612737;54;20645;-74
2023/05/19 10:13:07;;;;;;;15.13;14.23;;;20.10;1.00;;;;;;2611967;54;20460;-74
2023/05/19 10:18:56;;;;;;;13.90;13.40;;;20.70;1.00;;;;;;2611789;39;20523;-72
2023/05/19 10:24:43;;;;;;;14.90;14.33;;;20.50;1.00;;;;;;2609433;54;20399;-73
2023/05/19 10:41:33;;;;;;;14.40;13.90;;;21.50;1.00;;;;;;2611929;54;20392;-74
2023/05/19 10:47:26;;;;;;;13.40;12.90;;;21.20;1.00;;;;;;2611565;54;20428;-74
2023/05/19 10:53:19;;;;;;;14.00;13.50;;;21.40;1.00;;;;;;2612020;54;20387;-73
2023/05/19 11:05:35;;;;;;;13.67;13.17;;;21.60;1.00;;;;;;2612267;39;20826;-72
2023/05/19 11:08:35;;;;;;;13.90;13.30;;;21.30;1.00;;;;;;2612712;46;20551;-74
2023/05/19 11:11:16;;;;;;;15.23;14.53;;;21.10;1.00;;;;;;2613032;39;20856;-73
2023/05/19 11:23:20;;;;;;;14.27;13.77;;;21.60;1.00;;;;;;2613229;54;20379;-74
2023/05/19 11:29:09;;;;;;;14.13;13.63;;;22.00;1.00;;;;;;2615013;54;20504;-71
2023/05/19 11:34:57;;;;;;;13.73;13.30;;;22.20;1.00;;;;;;2615605;39;20803;-71
2023/05/19 11:40:46;;;;;;;14.47;13.97;;;21.40;1.00;;;;;;2612455;54;20392;-70
2023/05/19 11:46:34;;;;;;;14.43;13.80;;;22.00;1.00;;;;;;2613548;54;20434;-70
2023/05/19 11:52:22;;;;;;;13.90;13.40;;;22.30;1.00;;;;;;2612852;54;20139;-71
2023/05/19 11:58:10;;;;;;;13.80;13.30;;;22.00;1.00;;;;;;2612707;54;20487;-71
2023/05/19 12:03:57;;;;;;;13.90;13.40;;;22.30;1.00;;;;;;2614284;54;20142;-72
2023/05/19 12:13:08;;;;;;;13.60;13.20;;;22.20;1.00;;;;;;2613521;54;20399;-71
2023/05/19 12:18:56;;;;;;;13.27;12.77;;;22.60;1.00;;;;;;2613449;54;20420;-70
2023/05/19 12:24:45;;;;;;;13.37;12.93;;;22.50;1.00;;;;;;2613369;54;20131;-72
2023/05/19 12:30:32;;;;;;;14.20;13.70;;;22.50;1.00;;;;;;2613612;54;20384;-72
2023/05/19 12:36:23;;;;;;;13.67;13.27;;;22.60;1.00;;;;;;2614174;39;20814;-71
2023/05/19 12:42:11;;;;;;;14.83;14.07;;;23.00;1.00;;;;;;2613221;39;20869;-71
2023/05/19 12:48:03;;;;;;;14.10;13.60;;;22.30;1.00;;;;;;2614190;39;20748;-71
2023/05/19 12:53:51;;;;;;;14.27;13.47;;;22.80;1.00;;;;;;2610856;54;20390;-71
2023/05/19 12:59:41;;;;;;;14.97;14.37;;;23.00;1.00;;;;;;2614164;54;20146;-70
2023/05/19 13:05:42;;;;;;;15.27;14.57;;;23.20;1.00;;;;;;2609590;54;20415;-70
2023/05/19 13:11:42;;;;;;;14.07;13.47;;;21.70;1.00;;;;;;2608086;54;20424;-71
2023/05/19 13:17:29;;;;;;;15.50;14.90;;;22.70;1.00;;;;;;2609091;54;20407;-72
2023/05/19 13:23:17;;;;;;;14.70;14.20;;;22.70;1.00;;;;;;2608491;46;20773;-70
2023/05/19 13:29:04;;;;;;;15.83;15.00;;;22.80;1.00;;;;;;2608058;54;20552;-70
2023/05/19 13:34:52;;;;;;;14.20;13.50;;;22.70;1.00;;;;;;2608886;54;20133;-71
2023/05/19 13:40:39;;;;;;;13.80;13.30;;;22.80;1.00;;;;;;2606493;54;20129;-70
2023/05/19 13:46:26;;;;;;;14.30;13.80;;;23.50;1.00;;;;;;2608168;54;20237;-70
2023/05/19 13:52:14;;;;;;;14.93;14.07;;;23.30;1.00;;;;;;2609195;54;20131;-71
2023/05/19 13:58:02;;;;;;;14.97;14.27;;;23.00;1.00;;;;;;2610588;54;20173;-70
2023/05/19 14:03:50;;;;;;;15.83;15.17;;;22.90;1.00;;;;;;2613752;54;20154;-71
2023/05/19 14:13:05;;;;;;;14.67;14.17;;;22.60;1.00;;;;;;2612048;54;20392;-70
2023/05/19 14:18:53;;;;;;;14.80;14.30;;;22.80;1.00;;;;;;2611755;54;20519;-71
2023/05/19 14:24:41;;;;;;;14.37;13.87;;;22.90;1.00;;;;;;2609226;54;20247;-70
2023/05/19 14:30:29;;;;;;;15.67;15.00;;;22.80;1.00;;;;;;2613826;54;20690;-71
2023/05/19 14:36:17;;;;;;;13.60;13.20;;;22.70;1.00;;;;;;2611157;54;20139;-72
2023/05/19 14:42:04;;;;;;;14.93;14.30;;;22.90;1.00;;;;;;2611668;54;20239;-70
2023/05/19 14:47:52;;;;;;;14.93;14.40;;;23.00;1.00;;;;;;2613337;54;20130;-71
2023/05/19 14:53:40;;;;;;;15.23;14.10;;;22.50;1.00;;;;;;2613021;54;20138;-73
2023/05/19 14:59:28;;;;;;;16.13;15.43;;;22.70;1.00;;;;;;2613548;54;20653;-70
2023/05/19 15:05:16;;;;;;;14.63;14.13;;;21.50;1.00;;;;;;2613500;54;20394;-71
2023/05/19 15:08:39;;;;;;;15.07;14.57;;;22.30;1.00;;;;;;2612653;54;20416;-70
2023/05/19 15:11:05;;;;;;;15.13;14.57;;;22.60;1.00;;;;;;2613827;54;20162;-71
2023/05/19 15:16:53;;;;;;;14.60;14.10;;;22.60;1.00;;;;;;2612147;39;20226;-71
2023/05/19 15:22:40;;;;;;;14.50;13.80;;;22.00;1.00;;;;;;2611398;54;20174;-72
2023/05/19 15:28:28;;;;;;;15.93;15.33;;;22.40;1.00;;;;;;2608592;54;20138;-70
2023/05/19 15:34:17;;;;;;;17.03;16.23;;;21.90;1.00;;;;;;2613241;54;20624;-71
2023/05/19 15:40:05;;;;;;;15.07;14.37;;;21.50;1.00;;;;;;2612510;54;20418;-71
2023/05/19 15:45:54;;;;;;;14.40;13.90;;;21.60;1.00;;;;;;2613482;54;20383;-71
2023/05/19 15:51:43;;;;;;;15.40;14.70;;;22.20;1.00;;;;;;2612327;54;20427;-71
2023/05/19 15:57:30;;;;;;;14.50;14.00;;;21.40;1.00;;;;;;2613302;54;20379;-72
2023/05/19 16:03:18;;;;;;;15.20;14.70;;;21.60;1.00;;;;;;2611889;54;20127;-71
2023/05/19 16:13:08;;;;;;;15.60;15.00;;;21.70;1.00;;;;;;2611755;54;20422;-70
2023/05/19 16:18:55;;;;;;;14.00;13.50;;;21.50;1.00;;;;;;2611218;54;20455;-70
2023/05/19 16:24:43;;;;;;;14.37;13.87;;;23.10;1.00;;;;;;2609062;54;20174;-72
2023/05/19 16:30:31;;;;;;;13.80;13.40;;;22.70;1.00;;;;;;2605933;54;20162;-71
2023/05/19 16:36:21;;;;;;;14.87;14.03;;;22.30;1.00;;;;;;2612766;54;20591;-71
2023/05/19 16:42:09;;;;;;;15.27;14.63;;;21.70;1.00;;;;;;2613215;39;20842;-71
2023/05/19 16:47:58;;;;;;;15.13;14.63;;;21.00;1.00;;;;;;2611561;54;20178;-70
2023/05/19 16:53:46;;;;;;;15.00;14.40;;;21.10;1.00;;;;;;2613674;54;20383;-71
2023/05/19 16:59:33;;;;;;;16.80;15.80;;;20.60;1.00;;;;;;2611186;39;20652;-71
2023/05/19 17:05:21;;;;;;;15.50;14.90;;;20.50;1.00;;;;;;2610063;54;20138;-71
2023/05/19 17:11:21;;;;;;;14.63;14.13;;;20.60;1.00;;;;;;2606509;54;20143;-72
2023/05/19 17:17:08;;;;;;;15.80;15.20;;;20.40;1.00;;;;;;2606835;46;20557;-71
2023/05/19 17:22:55;;;;;;;15.40;14.80;;;20.30;1.00;;;;;;2610537;31;20629;-71
2023/05/19 17:28:43;;;;;;;14.70;14.20;;;19.70;1.00;;;;;;2612713;54;20139;-71
2023/05/19 17:34:30;;;;;;;14.50;14.00;;;19.70;1.00;;;;;;2610834;54;20134;-70
2023/05/19 17:40:17;;;;;;;16.43;15.63;;;19.40;1.00;;;;;;2608994;54;20287;-72
2023/05/19 17:46:05;;;;;;;14.40;13.90;;;19.40;1.00;;;;;;2609208;54;22112;-72
2023/05/19 17:51:53;;;;;;;14.80;14.30;;;19.20;1.00;;;;;;2610160;54;20383;-71
2023/05/19 17:57:45;;;;;;;16.03;15.43;;;19.10;1.00;;;;;;2606570;54;20688;-72
2023/05/19 18:03:33;;;;;;;15.40;14.80;;;18.80;1.00;;;;;;2609409;54;20391;-72
2023/05/19 18:13:06;;;;;;;14.37;13.87;;;18.60;1.00;;;;;;2610122;54;20584;-70
2023/05/19 18:18:53;;;;;;;15.00;14.40;;;18.50;1.00;;;;;;2610454;54;20435;-71
2023/05/19 18:24:41;;;;;;;15.30;14.70;;;18.40;1.00;;;;;;2611481;54;20126;-72
2023/05/19 18:30:29;;;;;;;13.43;13.03;;;18.20;1.00;;;;;;2611478;54;20215;-71
2023/05/19 18:36:17;;;;;;;14.50;14.00;;;18.10;1.00;;;;;;2612815;39;20649;-72
2023/05/19 18:42:05;;;;;;;15.73;15.10;;;17.90;1.00;;;;;;2612972;54;20387;-72
2023/05/19 18:47:53;;;;;;;14.20;13.70;;;17.80;1.00;;;;;;2602969;46;20149;-72
2023/05/19 18:53:41;;;;;;;14.10;13.60;;;17.70;1.00;;;;;;2611233;54;20135;-73
2023/05/19 18:59:29;;;;;;;14.57;14.07;;;17.60;1.00;;;;;;2608914;54;20641;-72
2023/05/19 19:05:17;;;;;;;14.20;13.70;;;17.30;1.00;;;;;;2610930;54;20149;-71
2023/05/19 19:08:37;;;;;;;15.67;14.87;;;17.20;1.00;;;;;;2613431;54;20412;-71
2023/05/19 19:11:07;;;;;;;13.50;13.10;;;17.10;1.00;;;;;;2614040;54;20154;-72
2023/05/19 19:16:55;;;;;;;14.10;13.30;;;16.90;1.00;;;;;;2613924;54;20812;-72
2023/05/19 19:22:43;;;;;;;14.03;13.53;;;16.80;1.00;;;;;;2614081;54;20161;-72
2023/05/19 19:28:31;;;;;;;14.17;13.67;;;16.60;1.40;;;;;;2614550;39;20595;-71
2023/05/19 19:34:19;;;;;;;14.10;13.60;;;16.40;2.60;;;;;;2613672;54;20629;-72
2023/05/19 19:40:10;;;;;;;13.47;13.07;;;16.30;3.30;;;;;;2613140;54;20154;-71
2023/05/19 19:46:03;;;;;;;14.60;14.10;;;16.00;4.80;;;;;;2612308;39;20776;-72
2023/05/19 19:51:50;;;;;;;14.40;13.90;;;15.90;5.80;;;;;;2614512;54;20402;-71
2023/05/19 19:57:38;;;;;;;14.03;13.53;;;15.70;7.40;;;;;;2611594;39;20740;-72
2023/05/19 20:00:41;;;;;;;14.20;13.70;;;15.60;8.20;;;;;;2612275;54;20427;-72
2023/05/19 20:03:07;;;;;;;13.97;13.47;;;15.50;9.50;;;;;;2614724;54;20158;-71
2023/05/19 20:13:07;;;;;;;14.20;13.70;;;15.20;12.10;;;;;;2613609;54;20415;-71
2023/05/19 20:18:54;;;;;;;14.60;14.10;;;15.00;13.90;;;;;;2613541;54;20567;-72
2023/05/19 20:24:42;;;;;;;13.80;13.30;;;14.80;15.20;;;;;;2614146;54;20150;-71
2023/05/19 20:30:30;;;;;;;14.53;14.03;;;14.60;18.60;;;;;;2614077;54;20166;-71
2023/05/19 20:36:18;;;;;;;14.10;13.60;;;14.60;21.00;;;;;;2614396;54;20154;-71
2023/05/19 20:42:06;;;;;;;15.50;14.90;;;14.40;23.60;;;;;;2611326;54;20134;-71
2023/05/19 20:47:55;;;;;;;14.00;13.50;;;14.20;27.50;;;;;;2610296;39;20770;-71
2023/05/19 20:53:43;;;;;;;13.87;13.37;;;14.10;30.60;;;;;;2609318;39;20768;-71
2023/05/19 20:59:31;;;;;;;13.90;13.40;;;13.90;37.50;;;;;;2609764;39;20180;-71
2023/05/19 21:05:19;;;;;;;14.30;13.80;;;13.80;39.80;;;;;;2608026;54;20391;-71
2023/05/19 21:08:38;;;;;;;14.40;13.90;;;13.90;38.40;;;;;;2610383;54;20449;-71
2023/05/19 21:11:04;;;;;;;14.67;14.17;;;13.80;37.40;;;;;;2612008;54;20151;-72
2023/05/19 21:16:55;;;;;;;13.90;13.40;;;13.80;40.60;;;;;;2610001;54;20400;-72
2023/05/19 21:22:42;;;;;;;14.20;13.70;;;13.70;43.80;;;;;;2610256;39;20725;-72
2023/05/19 21:28:30;;;;;;;14.13;13.63;;;13.60;45.30;;;;;;2611773;54;20150;-72
2023/05/19 21:34:18;;;;;;;13.30;12.90;;;13.50;51.00;;;;;;2613126;54;20134;-70
2023/05/19 21:40:07;;;;;;;13.77;13.27;;;13.30;55.00;;;;;;2613580;54;20139;-71
2023/05/19 21:45:55;;;;;;;13.33;12.93;;;13.10;71.00;;;;;;2613845;54;20462;-71
2023/05/19 21:51:42;;;;;;;13.13;12.73;;;12.90;82.10;;;;;;2613566;54;20154;-71
2023/05/19 21:57:30;;;;;;;13.70;13.20;;;12.80;92.40;;;;;;2613598;54;20165;-71
2023/05/19 22:03:18;;;;;;;13.80;13.30;;;13.00;87.10;;;;;;2613203;39;20552;-71
2023/05/19 22:13:09;;;;;;;13.00;12.60;;;13.20;81.60;;;;;;2611289;39;21501;-72
2023/05/19 22:18:57;;;;;;;13.20;12.80;;;13.20;81.80;;;;;;2611232;54;20403;-72
2023/05/19 22:24:45;;;;;;;13.00;12.60;;;13.00;86.50;;;;;;2609967;39;20537;-72
2023/05/19 22:30:35;;;;;;;13.00;12.60;;;12.90;88.10;;;;;;2610017;54;20149;-72
2023/05/19 22:36:22;;;;;;;12.60;12.20;;;12.80;91.90;;;;;;2609885;54;20482;-71
2023/05/19 22:42:10;;;;;;;12.90;12.50;;;12.50;99.90;;;;;;2610629;54;20196;-71
2023/05/19 22:47:58;;;;;;;12.77;12.37;;;12.20;99.90;;;;;;2614953;54;20243;-72
2023/05/19 22:53:47;;;;;;;11.70;11.30;;;12.00;99.90;;;;;;2612041;54;20182;-73
2023/05/19 22:59:37;;;;;;;11.90;11.50;;;11.80;99.90;;;;;;2611737;54;20406;-72
2023/05/19 23:05:24;;;;;;;12.17;11.77;;;11.80;99.90;;;;;;2611381;54;21036;-71
2023/05/19 23:08:39;;;;;;;11.97;11.57;;;11.50;99.90;;;;;;2610228;54;20411;-72
2023/05/19 23:11:05;;;;;;;11.50;11.10;;;11.40;99.90;;;;;;2609929;54;20184;-71
2023/05/19 23:16:53;;;;;;;11.50;11.10;;;11.40;99.90;;;;;;2609044;54;20402;-71
2023/05/19 23:22:43;;;;;;;10.90;10.50;;;11.20;99.90;;;;;;2610602;54;20218;-71
2023/05/19 23:28:31;;;;;;;10.90;10.50;;;11.10;99.90;;;;;;2611232;39;20743;-70
2023/05/19 23:34:19;;;;;;;10.27;9.97;;;11.00;99.90;;;;;;2610949;54;20729;-72
2023/05/19 23:40:07;;;;;;;9.97;9.67;;;10.80;99.90;;;;;;2611167;54;20222;-72
2023/05/19 23:45:55;;;;;;;10.00;9.70;;;10.80;99.90;;;;;;2613526;54;20524;-72
2023/05/19 23:51:42;;;;;;;10.07;9.77;;;10.80;99.90;;;;;;2610338;54;20138;-72
2023/05/19 23:57:30;;;;;;;9.77;9.47;;;10.90;99.90;;;;;;2610654;54;20146;-70
